sensor_id;sensor_type;location;lat;lon;timestamp;P1;durP1;ratioP1;P2;durP2;ratioP2
20734;SDS011;10528;52.124;5.196;2023-06-26T00:00:07;6.55;;;5.55;;
20734;SDS011;10528;52.124;5.196;2023-06-26T00:02:35;7.55;;;5.82;;
20734;SDS011;10528;52.124;5.196;2023-06-26T00:05:02;8.10;;;6.15;;
20734;SDS011;10528;52.124;5.196;2023-06-26T00:07:30;7.10;;;5.82;;
20734;SDS011;10528;52.124;5.196;2023-06-26T00:10:00;7.25;;;5.85;;
20734;SDS011;10528;52.124;5.196;2023-06-26T00:12:32;8.25;;;5.82;;
20734;SDS011;10528;52.124;5.196;2023-06-26T00:14:59;6.85;;;5.93;;
20734;SDS011;10528;52.124;5.196;2023-06-26T00:17:26;7.60;;;6.28;;
20734;SDS011;10528;52.124;5.196;2023-06-26T00:19:53;7.55;;;6.07;;
20734;SDS011;10528;52.124;5.196;2023-06-26T00:22:21;6.72;;;6.05;;
20734;SDS011;10528;52.124;5.196;2023-06-26T00:24:48;6.35;;;5.63;;
20734;SDS011;10528;52.124;5.196;2023-06-26T00:27:15;6.90;;;5.60;;
20734;SDS011;10528;52.124;5.196;2023-06-26T00:29:43;6.55;;;5.70;;
20734;SDS011;10528;52.124;5.196;2023-06-26T00:32:10;6.85;;;5.60;;
20734;SDS011;10528;52.124;5.196;2023-06-26T00:34:36;7.90;;;6.43;;
20734;SDS011;10528;52.124;5.196;2023-06-26T00:37:03;6.38;;;5.68;;
20734;SDS011;10528;52.124;5.196;2023-06-26T00:39:30;8.85;;;6.65;;
20734;SDS011;10528;52.124;5.196;2023-06-26T00:41:57;7.85;;;6.20;;
20734;SDS011;10528;52.124;5.196;2023-06-26T00:44:24;6.85;;;5.93;;
20734;SDS011;10528;52.124;5.196;2023-06-26T00:46:51;6.10;;;5.50;;
20734;SDS011;10528;52.124;5.196;2023-06-26T00:49:19;7.32;;;6.43;;
20734;SDS011;10528;52.124;5.196;2023-06-26T00:51:46;7.45;;;5.75;;
20734;SDS011;10528;52.124;5.196;2023-06-26T00:54:15;11.85;;;6.25;;
20734;SDS011;10528;52.124;5.196;2023-06-26T00:56:46;7.32;;;5.97;;
20734;SDS011;10528;52.124;5.196;2023-06-26T00:59:14;9.27;;;5.32;;
20734;SDS011;10528;52.124;5.196;2023-06-26T01:01:41;6.50;;;4.82;;
20734;SDS011;10528;52.124;5.196;2023-06-26T01:04:09;8.88;;;6.05;;
20734;SDS011;10528;52.124;5.196;2023-06-26T01:06:44;9.30;;;5.90;;
20734;SDS011;10528;52.124;5.196;2023-06-26T01:09:16;8.48;;;5.78;;
20734;SDS011;10528;52.124;5.196;2023-06-26T01:11:45;6.50;;;5.43;;
20734;SDS011;10528;52.124;5.196;2023-06-26T01:14:13;6.50;;;5.82;;
20734;SDS011;10528;52.124;5.196;2023-06-26T01:16:40;7.88;;;5.75;;
20734;SDS011;10528;52.124;5.196;2023-06-26T01:19:15;8.18;;;5.68;;
20734;SDS011;10528;52.124;5.196;2023-06-26T01:28:13;8.25;;;5.63;;
20734;SDS011;10528;52.124;5.196;2023-06-26T01:30:42;8.55;;;6.05;;
20734;SDS011;10528;52.124;5.196;2023-06-26T01:33:12;7.60;;;6.15;;
20734;SDS011;10528;52.124;5.196;2023-06-26T01:35:40;7.85;;;5.50;;
20734;SDS011;10528;52.124;5.196;2023-06-26T01:38:11;8.07;;;5.78;;
20734;SDS011;10528;52.124;5.196;2023-06-26T01:40:40;8.82;;;5.63;;
20734;SDS011;10528;52.124;5.196;2023-06-26T01:43:10;9.70;;;4.97;;
20734;SDS011;10528;52.124;5.196;2023-06-26T01:49:40;7.88;;;5.13;;
20734;SDS011;10528;52.124;5.196;2023-06-26T01:52:32;10.05;;;4.43;;
20734;SDS011;10528;52.124;5.196;2023-06-26T01:55:16;7.32;;;4.45;;
20734;SDS011;10528;52.124;5.196;2023-06-26T01:58:02;8.43;;;4.72;;
20734;SDS011;10528;52.124;5.196;2023-06-26T02:00:29;6.35;;;4.43;;
20734;SDS011;10528;52.124;5.196;2023-06-26T02:02:58;6.07;;;4.43;;
20734;SDS011;10528;52.124;5.196;2023-06-26T02:05:25;7.90;;;4.30;;
20734;SDS011;10528;52.124;5.196;2023-06-26T02:07:52;6.53;;;4.47;;
20734;SDS011;10528;52.124;5.196;2023-06-26T02:10:19;7.10;;;4.30;;
20734;SDS011;10528;52.124;5.196;2023-06-26T02:12:46;8.82;;;4.47;;
20734;SDS011;10528;52.124;5.196;2023-06-26T02:15:13;8.07;;;4.13;;
20734;SDS011;10528;52.124;5.196;2023-06-26T02:17:40;9.05;;;4.15;;
20734;SDS011;10528;52.124;5.196;2023-06-26T02:20:07;7.05;;;3.80;;
20734;SDS011;10528;52.124;5.196;2023-06-26T02:22:36;9.02;;;3.92;;
20734;SDS011;10528;52.124;5.196;2023-06-26T02:25:03;8.40;;;3.78;;
20734;SDS011;10528;52.124;5.196;2023-06-26T02:27:31;7.43;;;3.75;;
20734;SDS011;10528;52.124;5.196;2023-06-26T02:29:58;7.32;;;3.72;;
20734;SDS011;10528;52.124;5.196;2023-06-26T02:32:25;7.35;;;3.92;;
20734;SDS011;10528;52.124;5.196;2023-06-26T02:34:52;8.77;;;4.45;;
20734;SDS011;10528;52.124;5.196;2023-06-26T02:37:20;8.43;;;3.92;;
20734;SDS011;10528;52.124;5.196;2023-06-26T02:39:47;8.65;;;4.05;;
20734;SDS011;10528;52.124;5.196;2023-06-26T02:42:14;9.73;;;3.97;;
20734;SDS011;10528;52.124;5.196;2023-06-26T02:44:41;7.00;;;3.75;;
20734;SDS011;10528;52.124;5.196;2023-06-26T02:47:08;11.57;;;4.13;;
20734;SDS011;10528;52.124;5.196;2023-06-26T02:49:38;12.02;;;4.38;;
20734;SDS011;10528;52.124;5.196;2023-06-26T02:52:06;7.72;;;3.63;;
20734;SDS011;10528;52.124;5.196;2023-06-26T02:54:33;14.25;;;4.78;;
20734;SDS011;10528;52.124;5.196;2023-06-26T02:57:03;12.30;;;4.10;;
20734;SDS011;10528;52.124;5.196;2023-06-26T02:59:32;8.77;;;3.83;;
20734;SDS011;10528;52.124;5.196;2023-06-26T03:01:59;11.73;;;4.20;;
20734;SDS011;10528;52.124;5.196;2023-06-26T03:04:37;7.03;;;3.70;;
20734;SDS011;10528;52.124;5.196;2023-06-26T03:07:08;8.48;;;4.10;;
20734;SDS011;10528;52.124;5.196;2023-06-26T03:09:36;12.32;;;4.13;;
20734;SDS011;10528;52.124;5.196;2023-06-26T03:12:03;8.40;;;4.00;;
20734;SDS011;10528;52.124;5.196;2023-06-26T03:14:32;8.02;;;3.65;;
20734;SDS011;10528;52.124;5.196;2023-06-26T03:17:00;13.45;;;5.03;;
20734;SDS011;10528;52.124;5.196;2023-06-26T03:19:31;12.00;;;4.70;;
20734;SDS011;10528;52.124;5.196;2023-06-26T03:22:17;11.13;;;4.20;;
20734;SDS011;10528;52.124;5.196;2023-06-26T03:24:44;12.90;;;4.47;;
20734;SDS011;10528;52.124;5.196;2023-06-26T03:27:12;14.82;;;4.95;;
20734;SDS011;10528;52.124;5.196;2023-06-26T03:29:41;10.23;;;4.28;;
20734;SDS011;10528;52.124;5.196;2023-06-26T03:32:08;10.10;;;4.32;;
20734;SDS011;10528;52.124;5.196;2023-06-26T03:34:35;9.77;;;4.43;;
20734;SDS011;10528;52.124;5.196;2023-06-26T03:37:04;13.27;;;4.55;;
20734;SDS011;10528;52.124;5.196;2023-06-26T03:39:31;11.63;;;4.78;;
20734;SDS011;10528;52.124;5.196;2023-06-26T03:41:58;10.90;;;4.47;;
20734;SDS011;10528;52.124;5.196;2023-06-26T03:44:27;18.40;;;4.85;;
20734;SDS011;10528;52.124;5.196;2023-06-26T03:46:55;8.15;;;3.88;;
20734;SDS011;10528;52.124;5.196;2023-06-26T03:49:22;12.65;;;4.43;;
20734;SDS011;10528;52.124;5.196;2023-06-26T03:51:51;12.82;;;5.00;;
20734;SDS011;10528;52.124;5.196;2023-06-26T03:54:17;13.02;;;4.50;;
20734;SDS011;10528;52.124;5.196;2023-06-26T03:56:44;12.45;;;4.40;;
20734;SDS011;10528;52.124;5.196;2023-06-26T03:59:11;10.48;;;4.25;;
20734;SDS011;10528;52.124;5.196;2023-06-26T04:01:39;13.00;;;4.35;;
20734;SDS011;10528;52.124;5.196;2023-06-26T04:04:06;12.48;;;4.72;;
20734;SDS011;10528;52.124;5.196;2023-06-26T04:06:33;11.68;;;4.20;;
20734;SDS011;10528;52.124;5.196;2023-06-26T04:09:00;8.63;;;3.80;;
20734;SDS011;10528;52.124;5.196;2023-06-26T04:11:27;12.63;;;4.75;;
20734;SDS011;10528;52.124;5.196;2023-06-26T04:13:54;12.38;;;4.57;;
20734;SDS011;10528;52.124;5.196;2023-06-26T04:16:21;11.38;;;3.75;;
20734;SDS011;10528;52.124;5.196;2023-06-26T04:18:51;11.13;;;4.38;;
20734;SDS011;10528;52.124;5.196;2023-06-26T04:21:19;10.45;;;4.00;;
20734;SDS011;10528;52.124;5.196;2023-06-26T04:23:46;13.55;;;4.38;;
20734;SDS011;10528;52.124;5.196;2023-06-26T04:26:14;12.48;;;4.10;;
20734;SDS011;10528;52.124;5.196;2023-06-26T04:28:41;11.52;;;4.30;;
20734;SDS011;10528;52.124;5.196;2023-06-26T04:31:08;12.48;;;4.07;;
20734;SDS011;10528;52.124;5.196;2023-06-26T04:33:36;11.23;;;3.67;;
20734;SDS011;10528;52.124;5.196;2023-06-26T04:36:07;11.45;;;3.90;;
20734;SDS011;10528;52.124;5.196;2023-06-26T04:38:34;15.18;;;4.63;;
20734;SDS011;10528;52.124;5.196;2023-06-26T04:41:02;12.27;;;4.65;;
20734;SDS011;10528;52.124;5.196;2023-06-26T04:43:29;11.05;;;4.70;;
20734;SDS011;10528;52.124;5.196;2023-06-26T04:45:56;10.30;;;4.30;;
20734;SDS011;10528;52.124;5.196;2023-06-26T04:48:23;12.73;;;4.40;;
20734;SDS011;10528;52.124;5.196;2023-06-26T04:50:50;9.85;;;4.10;;
20734;SDS011;10528;52.124;5.196;2023-06-26T04:53:20;9.50;;;4.18;;
20734;SDS011;10528;52.124;5.196;2023-06-26T04:55:50;8.73;;;3.78;;
20734;SDS011;10528;52.124;5.196;2023-06-26T04:58:18;9.32;;;3.55;;
20734;SDS011;10528;52.124;5.196;2023-06-26T05:00:46;11.75;;;4.18;;
20734;SDS011;10528;52.124;5.196;2023-06-26T05:03:14;8.52;;;3.78;;
20734;SDS011;10528;52.124;5.196;2023-06-26T05:05:44;8.63;;;3.63;;
20734;SDS011;10528;52.124;5.196;2023-06-26T05:08:15;9.65;;;3.35;;
20734;SDS011;10528;52.124;5.196;2023-06-26T05:10:44;14.63;;;4.90;;
20734;SDS011;10528;52.124;5.196;2023-06-26T05:13:12;7.07;;;3.45;;
20734;SDS011;10528;52.124;5.196;2023-06-26T05:15:45;9.68;;;3.60;;
20734;SDS011;10528;52.124;5.196;2023-06-26T05:18:13;5.97;;;3.00;;
20734;SDS011;10528;52.124;5.196;2023-06-26T05:20:40;6.90;;;3.58;;
20734;SDS011;10528;52.124;5.196;2023-06-26T05:23:07;8.70;;;3.58;;
20734;SDS011;10528;52.124;5.196;2023-06-26T05:25:37;8.13;;;3.47;;
20734;SDS011;10528;52.124;5.196;2023-06-26T05:28:05;7.38;;;2.90;;
20734;SDS011;10528;52.124;5.196;2023-06-26T05:30:34;6.70;;;2.95;;
20734;SDS011;10528;52.124;5.196;2023-06-26T05:33:02;6.40;;;2.92;;
20734;SDS011;10528;52.124;5.196;2023-06-26T05:35:32;6.68;;;3.00;;
20734;SDS011;10528;52.124;5.196;2023-06-26T05:38:02;4.45;;;2.53;;
20734;SDS011;10528;52.124;5.196;2023-06-26T05:40:29;7.20;;;2.80;;
20734;SDS011;10528;52.124;5.196;2023-06-26T05:42:57;5.85;;;2.58;;
20734;SDS011;10528;52.124;5.196;2023-06-26T05:45:24;7.18;;;2.80;;
20734;SDS011;10528;52.124;5.196;2023-06-26T05:47:51;7.88;;;2.50;;
20734;SDS011;10528;52.124;5.196;2023-06-26T05:50:18;5.03;;;2.50;;
20734;SDS011;10528;52.124;5.196;2023-06-26T05:52:46;6.32;;;2.63;;
20734;SDS011;10528;52.124;5.196;2023-06-26T05:55:13;4.53;;;2.30;;
20734;SDS011;10528;52.124;5.196;2023-06-26T05:57:41;6.90;;;2.28;;
20734;SDS011;10528;52.124;5.196;2023-06-26T06:00:09;4.18;;;2.35;;
20734;SDS011;10528;52.124;5.196;2023-06-26T06:02:41;3.58;;;2.30;;
20734;SDS011;10528;52.124;5.196;2023-06-26T06:05:09;6.55;;;2.10;;
20734;SDS011;10528;52.124;5.196;2023-06-26T06:07:36;6.50;;;2.13;;
20734;SDS011;10528;52.124;5.196;2023-06-26T06:10:03;7.30;;;2.60;;
20734;SDS011;10528;52.124;5.196;2023-06-26T06:12:31;6.22;;;2.35;;
20734;SDS011;10528;52.124;5.196;2023-06-26T06:14:58;5.57;;;2.03;;
20734;SDS011;10528;52.124;5.196;2023-06-26T06:17:25;4.25;;;2.00;;
20734;SDS011;10528;52.124;5.196;2023-06-26T06:19:52;6.47;;;2.05;;
20734;SDS011;10528;52.124;5.196;2023-06-26T06:22:19;5.18;;;2.03;;
20734;SDS011;10528;52.124;5.196;2023-06-26T06:24:48;5.05;;;2.40;;
20734;SDS011;10528;52.124;5.196;2023-06-26T06:27:17;5.50;;;2.22;;
20734;SDS011;10528;52.124;5.196;2023-06-26T06:29:45;5.80;;;2.15;;
20734;SDS011;10528;52.124;5.196;2023-06-26T06:32:12;4.45;;;2.25;;
20734;SDS011;10528;52.124;5.196;2023-06-26T06:34:39;6.30;;;2.13;;
20734;SDS011;10528;52.124;5.196;2023-06-26T06:37:06;4.60;;;2.20;;
20734;SDS011;10528;52.124;5.196;2023-06-26T06:39:33;5.32;;;2.33;;
20734;SDS011;10528;52.124;5.196;2023-06-26T06:42:00;3.78;;;2.00;;
20734;SDS011;10528;52.124;5.196;2023-06-26T06:44:27;3.58;;;2.00;;
20734;SDS011;10528;52.124;5.196;2023-06-26T06:46:54;4.07;;;1.98;;
20734;SDS011;10528;52.124;5.196;2023-06-26T06:49:21;5.32;;;2.55;;
20734;SDS011;10528;52.124;5.196;2023-06-26T06:51:48;6.25;;;2.40;;
20734;SDS011;10528;52.124;5.196;2023-06-26T06:54:15;8.15;;;2.35;;
20734;SDS011;10528;52.124;5.196;2023-06-26T06:56:43;8.73;;;2.53;;
20734;SDS011;10528;52.124;5.196;2023-06-26T06:59:10;4.38;;;2.20;;
20734;SDS011;10528;52.124;5.196;2023-06-26T07:01:38;5.75;;;2.20;;
20734;SDS011;10528;52.124;5.196;2023-06-26T07:04:06;3.80;;;2.10;;
20734;SDS011;10528;52.124;5.196;2023-06-26T07:06:33;4.18;;;2.17;;
20734;SDS011;10528;52.124;5.196;2023-06-26T07:09:01;4.55;;;2.10;;
20734;SDS011;10528;52.124;5.196;2023-06-26T07:11:29;4.63;;;1.90;;
20734;SDS011;10528;52.124;5.196;2023-06-26T07:13:56;4.30;;;1.92;;
20734;SDS011;10528;52.124;5.196;2023-06-26T07:16:23;4.53;;;2.20;;
20734;SDS011;10528;52.124;5.196;2023-06-26T07:18:50;4.47;;;1.95;;
20734;SDS011;10528;52.124;5.196;2023-06-26T07:21:18;4.88;;;2.00;;
20734;SDS011;10528;52.124;5.196;2023-06-26T07:23:45;4.85;;;2.13;;
20734;SDS011;10528;52.124;5.196;2023-06-26T07:26:14;6.18;;;2.20;;
20734;SDS011;10528;52.124;5.196;2023-06-26T07:28:42;5.68;;;1.95;;
20734;SDS011;10528;52.124;5.196;2023-06-26T07:31:09;6.30;;;2.20;;
20734;SDS011;10528;52.124;5.196;2023-06-26T07:33:36;4.63;;;2.03;;
20734;SDS011;10528;52.124;5.196;2023-06-26T07:36:03;3.08;;;1.65;;
20734;SDS011;10528;52.124;5.196;2023-06-26T07:38:30;7.03;;;2.00;;
20734;SDS011;10528;52.124;5.196;2023-06-26T07:40:57;7.28;;;2.00;;
20734;SDS011;10528;52.124;5.196;2023-06-26T07:43:24;7.88;;;1.58;;
20734;SDS011;10528;52.124;5.196;2023-06-26T07:45:51;4.60;;;1.50;;
20734;SDS011;10528;52.124;5.196;2023-06-26T07:48:19;6.82;;;1.92;;
20734;SDS011;10528;52.124;5.196;2023-06-26T07:50:46;4.43;;;1.98;;
20734;SDS011;10528;52.124;5.196;2023-06-26T07:53:13;4.90;;;1.80;;
20734;SDS011;10528;52.124;5.196;2023-06-26T07:55:40;5.38;;;1.90;;
20734;SDS011;10528;52.124;5.196;2023-06-26T07:58:07;7.65;;;2.00;;
20734;SDS011;10528;52.124;5.196;2023-06-26T08:00:35;6.35;;;2.03;;
20734;SDS011;10528;52.124;5.196;2023-06-26T08:03:03;5.70;;;1.85;;
20734;SDS011;10528;52.124;5.196;2023-06-26T08:05:30;5.13;;;1.83;;
20734;SDS011;10528;52.124;5.196;2023-06-26T08:07:58;3.85;;;1.50;;
20734;SDS011;10528;52.124;5.196;2023-06-26T08:10:26;5.75;;;1.65;;
20734;SDS011;10528;52.124;5.196;2023-06-26T08:12:53;3.88;;;1.65;;
20734;SDS011;10528;52.124;5.196;2023-06-26T08:15:20;5.97;;;1.60;;
20734;SDS011;10528;52.124;5.196;2023-06-26T08:17:47;3.80;;;1.67;;
20734;SDS011;10528;52.124;5.196;2023-06-26T08:20:14;5.60;;;1.40;;
20734;SDS011;10528;52.124;5.196;2023-06-26T08:22:41;7.82;;;1.30;;
20734;SDS011;10528;52.124;5.196;2023-06-26T08:25:08;6.35;;;1.67;;
20734;SDS011;10528;52.124;5.196;2023-06-26T08:27:35;4.38;;;1.50;;
20734;SDS011;10528;52.124;5.196;2023-06-26T08:30:03;6.78;;;1.48;;
20734;SDS011;10528;52.124;5.196;2023-06-26T08:32:31;5.93;;;1.10;;
20734;SDS011;10528;52.124;5.196;2023-06-26T08:34:58;5.13;;;1.50;;
20734;SDS011;10528;52.124;5.196;2023-06-26T08:37:25;4.10;;;1.30;;
20734;SDS011;10528;52.124;5.196;2023-06-26T08:39:52;5.13;;;1.40;;
20734;SDS011;10528;52.124;5.196;2023-06-26T08:42:19;4.18;;;1.27;;
20734;SDS011;10528;52.124;5.196;2023-06-26T08:44:46;8.07;;;1.70;;
20734;SDS011;10528;52.124;5.196;2023-06-26T08:47:26;4.95;;;1.20;;
20734;SDS011;10528;52.124;5.196;2023-06-26T08:50:12;7.05;;;1.30;;
20734;SDS011;10528;52.124;5.196;2023-06-26T08:55:21;3.70;;;1.30;;
20734;SDS011;10528;52.124;5.196;2023-06-26T08:57:53;6.00;;;1.30;;
20734;SDS011;10528;52.124;5.196;2023-06-26T09:00:20;5.93;;;1.35;;
20734;SDS011;10528;52.124;5.196;2023-06-26T09:02:47;7.00;;;1.17;;
20734;SDS011;10528;52.124;5.196;2023-06-26T09:05:15;6.40;;;1.58;;
20734;SDS011;10528;52.124;5.196;2023-06-26T09:07:42;6.00;;;1.67;;
20734;SDS011;10528;52.124;5.196;2023-06-26T09:10:09;3.92;;;1.50;;
20734;SDS011;10528;52.124;5.196;2023-06-26T09:12:37;3.88;;;1.40;;
20734;SDS011;10528;52.124;5.196;2023-06-26T09:15:05;4.55;;;1.48;;
20734;SDS011;10528;52.124;5.196;2023-06-26T09:17:33;3.53;;;1.35;;
20734;SDS011;10528;52.124;5.196;2023-06-26T09:20:09;4.13;;;1.40;;
20734;SDS011;10528;52.124;5.196;2023-06-26T09:22:37;8.15;;;1.92;;
20734;SDS011;10528;52.124;5.196;2023-06-26T09:25:06;3.35;;;1.35;;
20734;SDS011;10528;52.124;5.196;2023-06-26T09:27:35;4.35;;;1.70;;
20734;SDS011;10528;52.124;5.196;2023-06-26T09:30:03;4.90;;;1.50;;
20734;SDS011;10528;52.124;5.196;2023-06-26T09:32:35;5.10;;;1.77;;
20734;SDS011;10528;52.124;5.196;2023-06-26T09:35:03;2.70;;;1.30;;
20734;SDS011;10528;52.124;5.196;2023-06-26T09:37:31;3.85;;;1.50;;
20734;SDS011;10528;52.124;5.196;2023-06-26T09:39:59;4.60;;;1.63;;
20734;SDS011;10528;52.124;5.196;2023-06-26T09:42:26;2.33;;;1.40;;
20734;SDS011;10528;52.124;5.196;2023-06-26T09:44:53;3.83;;;1.52;;
20734;SDS011;10528;52.124;5.196;2023-06-26T09:47:21;4.13;;;1.42;;
20734;SDS011;10528;52.124;5.196;2023-06-26T09:49:51;4.40;;;1.63;;
20734;SDS011;10528;52.124;5.196;2023-06-26T09:52:19;4.97;;;1.50;;
20734;SDS011;10528;52.124;5.196;2023-06-26T09:54:46;2.88;;;1.27;;
20734;SDS011;10528;52.124;5.196;2023-06-26T09:57:14;5.18;;;1.30;;
20734;SDS011;10528;52.124;5.196;2023-06-26T09:59:43;6.00;;;1.55;;
20734;SDS011;10528;52.124;5.196;2023-06-26T10:02:14;3.13;;;1.38;;
20734;SDS011;10528;52.124;5.196;2023-06-26T10:04:41;4.45;;;1.20;;
20734;SDS011;10528;52.124;5.196;2023-06-26T10:07:10;3.63;;;1.17;;
20734;SDS011;10528;52.124;5.196;2023-06-26T10:09:41;3.17;;;1.17;;
20734;SDS011;10528;52.124;5.196;2023-06-26T10:12:14;7.05;;;1.90;;
20734;SDS011;10528;52.124;5.196;2023-06-26T10:14:53;6.32;;;1.10;;
20734;SDS011;10528;52.124;5.196;2023-06-26T10:17:22;4.57;;;1.02;;
20734;SDS011;10528;52.124;5.196;2023-06-26T10:19:55;5.57;;;1.00;;
20734;SDS011;10528;52.124;5.196;2023-06-26T10:22:31;2.40;;;1.10;;
20734;SDS011;10528;52.124;5.196;2023-06-26T10:25:07;6.80;;;1.20;;
20734;SDS011;10528;52.124;5.196;2023-06-26T10:27:38;3.88;;;1.15;;
20734;SDS011;10528;52.124;5.196;2023-06-26T10:30:12;4.65;;;1.20;;
20734;SDS011;10528;52.124;5.196;2023-06-26T10:32:44;3.38;;;1.30;;
20734;SDS011;10528;52.124;5.196;2023-06-26T10:35:13;6.13;;;1.30;;
20734;SDS011;10528;52.124;5.196;2023-06-26T10:37:41;2.42;;;1.08;;
20734;SDS011;10528;52.124;5.196;2023-06-26T10:40:17;4.72;;;1.17;;
20734;SDS011;10528;52.124;5.196;2023-06-26T10:42:51;4.10;;;1.35;;
20734;SDS011;10528;52.124;5.196;2023-06-26T10:45:32;4.82;;;1.50;;
20734;SDS011;10528;52.124;5.196;2023-06-26T10:48:02;4.95;;;1.75;;
20734;SDS011;10528;52.124;5.196;2023-06-26T10:50:32;4.43;;;1.20;;
20734;SDS011;10528;52.124;5.196;2023-06-26T10:55:55;2.15;;;1.00;;
20734;SDS011;10528;52.124;5.196;2023-06-26T10:58:39;5.18;;;1.20;;
20734;SDS011;10528;52.124;5.196;2023-06-26T11:06:30;1.85;;;1.00;;
20734;SDS011;10528;52.124;5.196;2023-06-26T11:14:21;3.78;;;1.33;;
20734;SDS011;10528;52.124;5.196;2023-06-26T11:16:50;2.83;;;1.08;;
20734;SDS011;10528;52.124;5.196;2023-06-26T11:19:18;2.35;;;1.00;;
20734;SDS011;10528;52.124;5.196;2023-06-26T11:21:46;6.35;;;1.45;;
20734;SDS011;10528;52.124;5.196;2023-06-26T11:24:13;3.75;;;1.10;;
20734;SDS011;10528;52.124;5.196;2023-06-26T11:26:41;2.45;;;0.95;;
20734;SDS011;10528;52.124;5.196;2023-06-26T11:29:10;2.50;;;1.10;;
20734;SDS011;10528;52.124;5.196;2023-06-26T11:31:39;4.15;;;1.00;;
20734;SDS011;10528;52.124;5.196;2023-06-26T11:34:08;4.70;;;1.08;;
20734;SDS011;10528;52.124;5.196;2023-06-26T11:36:38;4.07;;;0.98;;
20734;SDS011;10528;52.124;5.196;2023-06-26T11:39:09;3.05;;;0.98;;
20734;SDS011;10528;52.124;5.196;2023-06-26T11:41:37;3.33;;;1.00;;
20734;SDS011;10528;52.124;5.196;2023-06-26T11:44:07;4.25;;;1.48;;
20734;SDS011;10528;52.124;5.196;2023-06-26T11:46:40;3.75;;;1.10;;
20734;SDS011;10528;52.124;5.196;2023-06-26T11:49:08;1.38;;;0.85;;
20734;SDS011;10528;52.124;5.196;2023-06-26T11:51:35;3.47;;;0.70;;
20734;SDS011;10528;52.124;5.196;2023-06-26T11:54:03;1.48;;;0.68;;
20734;SDS011;10528;52.124;5.196;2023-06-26T11:56:31;4.45;;;1.00;;
20734;SDS011;10528;52.124;5.196;2023-06-26T12:01:41;2.22;;;0.73;;
20734;SDS011;10528;52.124;5.196;2023-06-26T12:04:13;2.33;;;0.90;;
20734;SDS011;10528;52.124;5.196;2023-06-26T12:06:46;3.70;;;0.80;;
20734;SDS011;10528;52.124;5.196;2023-06-26T12:09:20;2.85;;;0.80;;
20734;SDS011;10528;52.124;5.196;2023-06-26T12:11:48;2.88;;;0.90;;
20734;SDS011;10528;52.124;5.196;2023-06-26T12:14:22;2.83;;;0.80;;
20734;SDS011;10528;52.124;5.196;2023-06-26T12:16:52;4.38;;;0.90;;
20734;SDS011;10528;52.124;5.196;2023-06-26T12:19:23;4.13;;;0.95;;
20734;SDS011;10528;52.124;5.196;2023-06-26T12:21:54;3.40;;;1.02;;
20734;SDS011;10528;52.124;5.196;2023-06-26T12:24:23;2.83;;;0.73;;
20734;SDS011;10528;52.124;5.196;2023-06-26T12:26:51;3.63;;;1.20;;
20734;SDS011;10528;52.124;5.196;2023-06-26T12:29:30;2.42;;;0.70;;
20734;SDS011;10528;52.124;5.196;2023-06-26T12:31:59;4.78;;;0.90;;
20734;SDS011;10528;52.124;5.196;2023-06-26T12:34:28;2.47;;;0.80;;
20734;SDS011;10528;52.124;5.196;2023-06-26T12:37:01;2.17;;;0.80;;
20734;SDS011;10528;52.124;5.196;2023-06-26T12:39:51;2.78;;;1.00;;
20734;SDS011;10528;52.124;5.196;2023-06-26T12:42:20;2.58;;;0.80;;
20734;SDS011;10528;52.124;5.196;2023-06-26T12:44:54;2.08;;;0.73;;
20734;SDS011;10528;52.124;5.196;2023-06-26T12:47:25;4.95;;;1.25;;
20734;SDS011;10528;52.124;5.196;2023-06-26T12:49:55;7.55;;;1.50;;
20734;SDS011;10528;52.124;5.196;2023-06-26T12:52:24;6.53;;;1.17;;
20734;SDS011;10528;52.124;5.196;2023-06-26T12:54:51;2.28;;;0.90;;
20734;SDS011;10528;52.124;5.196;2023-06-26T12:57:22;4.13;;;0.98;;
20734;SDS011;10528;52.124;5.196;2023-06-26T12:59:49;3.22;;;1.20;;
20734;SDS011;10528;52.124;5.196;2023-06-26T13:02:16;7.07;;;1.05;;
20734;SDS011;10528;52.124;5.196;2023-06-26T13:04:44;3.95;;;1.02;;
20734;SDS011;10528;52.124;5.196;2023-06-26T13:07:11;4.35;;;1.10;;
20734;SDS011;10528;52.124;5.196;2023-06-26T13:09:38;2.55;;;1.08;;
20734;SDS011;10528;52.124;5.196;2023-06-26T13:12:07;3.72;;;1.10;;
20734;SDS011;10528;52.124;5.196;2023-06-26T13:14:35;3.33;;;1.00;;
20734;SDS011;10528;52.124;5.196;2023-06-26T13:17:02;4.07;;;0.98;;
20734;SDS011;10528;52.124;5.196;2023-06-26T13:19:33;7.55;;;1.55;;
20734;SDS011;10528;52.124;5.196;2023-06-26T13:22:00;5.95;;;1.33;;
20734;SDS011;10528;52.124;5.196;2023-06-26T13:24:27;4.43;;;1.35;;
20734;SDS011;10528;52.124;5.196;2023-06-26T13:26:54;4.45;;;1.00;;
20734;SDS011;10528;52.124;5.196;2023-06-26T13:29:21;2.92;;;1.10;;
20734;SDS011;10528;52.124;5.196;2023-06-26T13:31:49;4.78;;;1.13;;
20734;SDS011;10528;52.124;5.196;2023-06-26T13:34:22;3.22;;;1.13;;
20734;SDS011;10528;52.124;5.196;2023-06-26T13:36:50;5.97;;;1.00;;
20734;SDS011;10528;52.124;5.196;2023-06-26T13:39:17;3.60;;;1.25;;
20734;SDS011;10528;52.124;5.196;2023-06-26T13:41:44;4.05;;;1.00;;
20734;SDS011;10528;52.124;5.196;2023-06-26T13:44:12;4.78;;;1.08;;
20734;SDS011;10528;52.124;5.196;2023-06-26T13:46:52;4.30;;;1.20;;
20734;SDS011;10528;52.124;5.196;2023-06-26T13:49:19;2.75;;;1.33;;
20734;SDS011;10528;52.124;5.196;2023-06-26T13:51:46;4.03;;;1.02;;
20734;SDS011;10528;52.124;5.196;2023-06-26T13:54:14;3.08;;;1.00;;
20734;SDS011;10528;52.124;5.196;2023-06-26T13:56:41;3.00;;;0.80;;
20734;SDS011;10528;52.124;5.196;2023-06-26T13:59:08;4.32;;;0.82;;
20734;SDS011;10528;52.124;5.196;2023-06-26T14:01:35;3.45;;;0.75;;
20734;SDS011;10528;52.124;5.196;2023-06-26T14:04:02;4.00;;;1.20;;
20734;SDS011;10528;52.124;5.196;2023-06-26T14:06:29;3.42;;;1.50;;
20734;SDS011;10528;52.124;5.196;2023-06-26T14:08:56;1.98;;;0.77;;
20734;SDS011;10528;52.124;5.196;2023-06-26T14:11:23;4.45;;;0.98;;
20734;SDS011;10528;52.124;5.196;2023-06-26T14:13:51;3.15;;;0.90;;
20734;SDS011;10528;52.124;5.196;2023-06-26T14:16:18;4.35;;;0.90;;
20734;SDS011;10528;52.124;5.196;2023-06-26T14:18:47;3.25;;;1.25;;
20734;SDS011;10528;52.124;5.196;2023-06-26T14:21:13;2.97;;;0.73;;
20734;SDS011;10528;52.124;5.196;2023-06-26T14:23:41;3.95;;;0.90;;
20734;SDS011;10528;52.124;5.196;2023-06-26T14:26:08;2.20;;;0.82;;
20734;SDS011;10528;52.124;5.196;2023-06-26T14:28:35;1.45;;;0.77;;
20734;SDS011;10528;52.124;5.196;2023-06-26T14:31:02;2.55;;;1.33;;
20734;SDS011;10528;52.124;5.196;2023-06-26T14:33:29;10.60;;;1.02;;
20734;SDS011;10528;52.124;5.196;2023-06-26T14:35:56;2.22;;;0.80;;
20734;SDS011;10528;52.124;5.196;2023-06-26T14:38:23;2.25;;;0.90;;
20734;SDS011;10528;52.124;5.196;2023-06-26T14:40:50;2.65;;;0.82;;
20734;SDS011;10528;52.124;5.196;2023-06-26T14:43:17;5.80;;;1.00;;
20734;SDS011;10528;52.124;5.196;2023-06-26T14:45:45;2.25;;;0.98;;
20734;SDS011;10528;52.124;5.196;2023-06-26T14:48:12;3.25;;;1.00;;
20734;SDS011;10528;52.124;5.196;2023-06-26T14:50:40;3.10;;;0.90;;
20734;SDS011;10528;52.124;5.196;2023-06-26T14:53:07;2.33;;;0.82;;
20734;SDS011;10528;52.124;5.196;2023-06-26T14:55:34;2.90;;;0.82;;
20734;SDS011;10528;52.124;5.196;2023-06-26T14:58:01;3.67;;;1.17;;
20734;SDS011;10528;52.124;5.196;2023-06-26T15:00:28;2.08;;;0.88;;
20734;SDS011;10528;52.124;5.196;2023-06-26T15:02:55;1.83;;;0.77;;
20734;SDS011;10528;52.124;5.196;2023-06-26T15:05:27;2.45;;;0.77;;
20734;SDS011;10528;52.124;5.196;2023-06-26T15:07:54;1.95;;;0.82;;
20734;SDS011;10528;52.124;5.196;2023-06-26T15:10:21;2.15;;;1.10;;
20734;SDS011;10528;52.124;5.196;2023-06-26T15:12:48;1.77;;;0.95;;
20734;SDS011;10528;52.124;5.196;2023-06-26T15:15:15;2.40;;;0.73;;
20734;SDS011;10528;52.124;5.196;2023-06-26T15:17:43;3.95;;;0.80;;
20734;SDS011;10528;52.124;5.196;2023-06-26T15:20:10;1.75;;;0.70;;
20734;SDS011;10528;52.124;5.196;2023-06-26T15:22:38;2.83;;;0.98;;